sensor_id;sensor_type;location;lat;lon;timestamp;pressure;altitude;pressure_sealevel;temperature;humidity
75208;BME280;63795;55.684;37.864;2023-06-04T00:01:04;99993.34;;;7.25;70.47
75208;BME280;63795;55.684;37.864;2023-06-04T00:06:05;99988.44;;;7.22;70.17
75208;BME280;63795;55.684;37.864;2023-06-04T00:11:05;99996.47;;;7.20;70.43
75208;BME280;63795;55.684;37.864;2023-06-04T00:16:06;100000.38;;;7.12;70.23
75208;BME280;63795;55.684;37.864;2023-06-04T00:21:07;99997.97;;;7.11;70.18
75208;BME280;63795;55.684;37.864;2023-06-04T00:26:07;100005.16;;;7.08;70.15
75208;BME280;63795;55.684;37.864;2023-06-04T00:31:08;100005.94;;;7.05;70.19
75208;BME280;63795;55.684;37.864;2023-06-04T00:36:08;100007.06;;;7.01;70.01
75208;BME280;63795;55.684;37.864;2023-06-04T00:41:09;100006.59;;;6.95;70.15
75208;BME280;63795;55.684;37.864;2023-06-04T00:46:09;100010.56;;;6.94;70.35
75208;BME280;63795;55.684;37.864;2023-06-04T00:51:13;100019.41;;;6.93;70.04
75208;BME280;63795;55.684;37.864;2023-06-04T00:56:14;100030.22;;;6.87;70.58
75208;BME280;63795;55.684;37.864;2023-06-04T01:01:37;100028.13;;;6.84;70.95
75208;BME280;63795;55.684;37.864;2023-06-04T01:06:45;100028.91;;;6.81;70.36
75208;BME280;63795;55.684;37.864;2023-06-04T01:11:48;100036.47;;;6.77;70.78
75208;BME280;63795;55.684;37.864;2023-06-04T01:22:35;100050.56;;;6.77;70.96
75208;BME280;63795;55.684;37.864;2023-06-04T01:27:37;100045.66;;;6.74;70.50
75208;BME280;63795;55.684;37.864;2023-06-04T01:32:40;100045.28;;;6.75;71.08
75208;BME280;63795;55.684;37.864;2023-06-04T01:37:41;100052.50;;;6.73;70.93
75208;BME280;63795;55.684;37.864;2023-06-04T01:42:42;100059.31;;;6.72;70.79
75208;BME280;63795;55.684;37.864;2023-06-04T01:47:42;100070.19;;;6.73;71.18
75208;BME280;63795;55.684;37.864;2023-06-04T01:52:43;100073.84;;;6.74;71.17
75208;BME280;63795;55.684;37.864;2023-06-04T01:57:45;100077.09;;;6.76;71.32
75208;BME280;63795;55.684;37.864;2023-06-04T02:02:46;100080.28;;;6.74;71.66
75208;BME280;63795;55.684;37.864;2023-06-04T02:07:48;100087.09;;;6.73;70.95
75208;BME280;63795;55.684;37.864;2023-06-04T02:12:57;100091.56;;;6.74;70.96
75208;BME280;63795;55.684;37.864;2023-06-04T02:18:10;100097.63;;;6.76;71.67
75208;BME280;63795;55.684;37.864;2023-06-04T02:23:18;100101.28;;;6.77;70.95
75208;BME280;63795;55.684;37.864;2023-06-04T02:28:18;100090.78;;;6.77;70.83
75208;BME280;63795;55.684;37.864;2023-06-04T02:33:19;100113.47;;;6.84;71.62
75208;BME280;63795;55.684;37.864;2023-06-04T02:38:20;100120.81;;;6.89;71.30
75208;BME280;63795;55.684;37.864;2023-06-04T02:43:21;100129.25;;;6.89;71.25
75208;BME280;63795;55.684;37.864;2023-06-04T02:48:21;100132.63;;;6.98;71.29
75208;BME280;63795;55.684;37.864;2023-06-04T02:53:22;100138.84;;;7.07;71.61
75208;BME280;63795;55.684;37.864;2023-06-04T02:58:25;100148.63;;;7.13;70.95
75208;BME280;63795;55.684;37.864;2023-06-04T03:03:25;100152.75;;;7.19;70.94
75208;BME280;63795;55.684;37.864;2023-06-04T03:08:27;100157.66;;;7.26;70.75
75208;BME280;63795;55.684;37.864;2023-06-04T03:13:27;100150.16;;;7.33;70.61
75208;BME280;63795;55.684;37.864;2023-06-04T03:18:28;100156.38;;;7.46;70.44
75208;BME280;63795;55.684;37.864;2023-06-04T03:23:29;100181.13;;;7.56;70.22
75208;BME280;63795;55.684;37.864;2023-06-04T03:28:31;100185.19;;;7.58;70.09
75208;BME280;63795;55.684;37.864;2023-06-04T03:33:32;100205.97;;;7.69;69.96
75208;BME280;63795;55.684;37.864;2023-06-04T03:38:32;100198.84;;;7.79;69.81
75208;BME280;63795;55.684;37.864;2023-06-04T03:43:32;100218.44;;;7.95;69.83
75208;BME280;63795;55.684;37.864;2023-06-04T03:48:33;100210.13;;;8.05;69.50
75208;BME280;63795;55.684;37.864;2023-06-04T03:53:34;100219.50;;;8.13;69.29
75208;BME280;63795;55.684;37.864;2023-06-04T03:58:35;100214.31;;;8.18;69.02
75208;BME280;63795;55.684;37.864;2023-06-04T04:03:36;100219.66;;;8.23;69.20
75208;BME280;63795;55.684;37.864;2023-06-04T04:08:37;100218.63;;;8.35;69.16
75208;BME280;63795;55.684;37.864;2023-06-04T04:13:44;100223.56;;;8.41;68.58
75208;BME280;63795;55.684;37.864;2023-06-04T04:18:45;100217.50;;;8.39;68.41
75208;BME280;63795;55.684;37.864;2023-06-04T04:23:46;100233.75;;;8.49;67.85
75208;BME280;63795;55.684;37.864;2023-06-04T04:28:47;100233.09;;;8.60;68.33
75208;BME280;63795;55.684;37.864;2023-06-04T04:33:47;100227.19;;;8.72;67.92
75208;BME280;63795;55.684;37.864;2023-06-04T04:38:48;100244.34;;;8.89;67.72
75208;BME280;63795;55.684;37.864;2023-06-04T04:43:54;100244.94;;;9.05;67.92
75208;BME280;63795;55.684;37.864;2023-06-04T04:49:02;100244.66;;;9.17;66.72
75208;BME280;63795;55.684;37.864;2023-06-04T04:54:03;100262.13;;;9.26;66.07
75208;BME280;63795;55.684;37.864;2023-06-04T04:59:03;100256.97;;;9.35;65.87
75208;BME280;63795;55.684;37.864;2023-06-04T05:04:04;100260.28;;;9.44;65.59
75208;BME280;63795;55.684;37.864;2023-06-04T05:09:04;100255.13;;;9.54;65.96
75208;BME280;63795;55.684;37.864;2023-06-04T05:14:05;100261.66;;;9.61;65.21
75208;BME280;63795;55.684;37.864;2023-06-04T05:19:05;100267.44;;;9.72;64.16
75208;BME280;63795;55.684;37.864;2023-06-04T05:24:06;100261.75;;;9.72;62.46
75208;BME280;63795;55.684;37.864;2023-06-04T05:29:07;100261.09;;;9.89;63.05
75208;BME280;63795;55.684;37.864;2023-06-04T05:34:10;100268.91;;;10.06;60.96
75208;BME280;63795;55.684;37.864;2023-06-04T05:39:11;100256.78;;;10.09;60.25
75208;BME280;63795;55.684;37.864;2023-06-04T05:44:11;100271.91;;;10.27;61.16
75208;BME280;63795;55.684;37.864;2023-06-04T05:49:12;100272.00;;;10.41;61.10
75208;BME280;63795;55.684;37.864;2023-06-04T05:54:13;100273.69;;;10.53;60.13
75208;BME280;63795;55.684;37.864;2023-06-04T05:59:13;100264.06;;;10.68;61.57
75208;BME280;63795;55.684;37.864;2023-06-04T06:04:14;100264.91;;;10.75;60.35
75208;BME280;63795;55.684;37.864;2023-06-04T06:09:16;100267.41;;;10.94;59.22
75208;BME280;63795;55.684;37.864;2023-06-04T06:14:19;100276.38;;;11.10;59.51
75208;BME280;63795;55.684;37.864;2023-06-04T06:19:19;100271.09;;;11.12;59.59
75208;BME280;63795;55.684;37.864;2023-06-04T06:24:20;100274.81;;;11.31;56.57
75208;BME280;63795;55.684;37.864;2023-06-04T06:29:20;100277.28;;;11.36;55.31
75208;BME280;63795;55.684;37.864;2023-06-04T06:34:21;100281.34;;;11.42;55.90
75208;BME280;63795;55.684;37.864;2023-06-04T06:39:21;100282.97;;;11.57;54.85
75208;BME280;63795;55.684;37.864;2023-06-04T06:44:22;100289.13;;;11.80;54.23
75208;BME280;63795;55.684;37.864;2023-06-04T06:49:22;100274.88;;;12.43;55.20
75208;BME280;63795;55.684;37.864;2023-06-04T06:54:23;100283.59;;;13.16;54.52
75208;BME280;63795;55.684;37.864;2023-06-04T06:59:24;100285.88;;;13.45;48.52
75208;BME280;63795;55.684;37.864;2023-06-04T07:04:25;100300.94;;;14.04;51.84
75208;BME280;63795;55.684;37.864;2023-06-04T07:09:26;100280.97;;;14.52;46.55
75208;BME280;63795;55.684;37.864;2023-06-04T07:14:26;100282.41;;;14.71;44.79
75208;BME280;63795;55.684;37.864;2023-06-04T07:19:27;100302.63;;;13.98;45.40
75208;BME280;63795;55.684;37.864;2023-06-04T07:24:27;100301.91;;;13.84;48.08
75208;BME280;63795;55.684;37.864;2023-06-04T07:29:27;100294.91;;;13.33;48.65
75208;BME280;63795;55.684;37.864;2023-06-04T07:34:28;100303.91;;;13.90;46.83
75208;BME280;63795;55.684;37.864;2023-06-04T07:39:28;100298.84;;;14.56;44.98
75208;BME280;63795;55.684;37.864;2023-06-04T07:44:29;100308.72;;;14.85;43.92
75208;BME280;63795;55.684;37.864;2023-06-04T07:49:29;100299.91;;;14.73;43.57
75208;BME280;63795;55.684;37.864;2023-06-04T07:54:30;100285.84;;;14.52;43.18
75208;BME280;63795;55.684;37.864;2023-06-04T07:59:31;100301.34;;;14.06;42.55
75208;BME280;63795;55.684;37.864;2023-06-04T08:04:32;100305.59;;;13.77;45.75
75208;BME280;63795;55.684;37.864;2023-06-04T08:09:33;100309.50;;;13.42;44.97
75208;BME280;63795;55.684;37.864;2023-06-04T08:14:34;100302.75;;;13.12;46.72
75208;BME280;63795;55.684;37.864;2023-06-04T08:19:34;100308.03;;;12.99;45.23
75208;BME280;63795;55.684;37.864;2023-06-04T08:24:35;100312.97;;;12.81;45.70
75208;BME280;63795;55.684;37.864;2023-06-04T08:29:36;100321.91;;;12.87;47.18
75208;BME280;63795;55.684;37.864;2023-06-04T08:34:37;100312.88;;;13.20;46.79
75208;BME280;63795;55.684;37.864;2023-06-04T08:39:37;100308.03;;;13.10;45.13
75208;BME280;63795;55.684;37.864;2023-06-04T08:44:38;100305.38;;;13.47;44.30
75208;BME280;63795;55.684;37.864;2023-06-04T08:49:40;100304.84;;;14.24;45.27
75208;BME280;63795;55.684;37.864;2023-06-04T08:54:41;100310.81;;;13.89;43.37
75208;BME280;63795;55.684;37.864;2023-06-04T08:59:41;100312.34;;;13.39;43.55
75208;BME280;63795;55.684;37.864;2023-06-04T09:04:43;100318.59;;;12.99;43.14
75208;BME280;63795;55.684;37.864;2023-06-04T09:09:45;100321.13;;;12.82;44.33
75208;BME280;63795;55.684;37.864;2023-06-04T09:14:47;100315.38;;;12.90;44.52
75208;BME280;63795;55.684;37.864;2023-06-04T09:19:49;100317.38;;;13.14;44.78
75208;BME280;63795;55.684;37.864;2023-06-04T09:24:50;100316.38;;;13.45;45.29
75208;BME280;63795;55.684;37.864;2023-06-04T09:29:58;100326.00;;;13.72;44.21
75208;BME280;63795;55.684;37.864;2023-06-04T09:35:12;100319.41;;;13.86;44.37
75208;BME280;63795;55.684;37.864;2023-06-04T09:40:14;100331.16;;;13.91;43.40
75208;BME280;63795;55.684;37.864;2023-06-04T09:45:35;100316.91;;;13.95;42.99
75208;BME280;63795;55.684;37.864;2023-06-04T09:50:36;100327.97;;;13.82;41.25
75208;BME280;63795;55.684;37.864;2023-06-04T09:55:42;100328.09;;;13.64;42.77
75208;BME280;63795;55.684;37.864;2023-06-04T10:00:44;100322.41;;;13.61;42.36
75208;BME280;63795;55.684;37.864;2023-06-04T10:05:45;100323.97;;;13.69;41.78
75208;BME280;63795;55.684;37.864;2023-06-04T10:10:46;100331.75;;;13.69;40.66
75208;BME280;63795;55.684;37.864;2023-06-04T10:15:49;100319.56;;;13.64;40.27
75208;BME280;63795;55.684;37.864;2023-06-04T10:20:53;100325.63;;;14.21;39.82
75208;BME280;63795;55.684;37.864;2023-06-04T10:25:55;100319.97;;;14.99;39.85
75208;BME280;63795;55.684;37.864;2023-06-04T10:30:56;100308.03;;;15.72;39.75
75208;BME280;63795;55.684;37.864;2023-06-04T10:35:57;100315.50;;;16.15;38.92
75208;BME280;63795;55.684;37.864;2023-06-04T10:40:57;100315.19;;;15.83;36.19
75208;BME280;63795;55.684;37.864;2023-06-04T10:45:58;100312.16;;;15.07;37.67
75208;BME280;63795;55.684;37.864;2023-06-04T10:50:58;100306.31;;;14.84;38.20
75208;BME280;63795;55.684;37.864;2023-06-04T10:55:59;100314.28;;;14.99;38.73
75208;BME280;63795;55.684;37.864;2023-06-04T11:00:59;100312.94;;;15.71;37.27
75208;BME280;63795;55.684;37.864;2023-06-04T11:06:00;100307.19;;;16.25;34.93
75208;BME280;63795;55.684;37.864;2023-06-04T11:11:10;100315.63;;;16.58;34.22
75208;BME280;63795;55.684;37.864;2023-06-04T11:16:18;100311.88;;;16.15;33.58
75208;BME280;63795;55.684;37.864;2023-06-04T11:21:19;100313.06;;;15.64;35.64
75208;BME280;63795;55.684;37.864;2023-06-04T11:26:21;100318.47;;;15.25;36.58
75208;BME280;63795;55.684;37.864;2023-06-04T11:31:21;100327.78;;;14.95;37.33
75208;BME280;63795;55.684;37.864;2023-06-04T11:41:27;100324.41;;;15.04;38.40
75208;BME280;63795;55.684;37.864;2023-06-04T11:46:27;100317.00;;;15.10;37.83
75208;BME280;63795;55.684;37.864;2023-06-04T11:51:28;100320.84;;;15.30;37.18
75208;BME280;63795;55.684;37.864;2023-06-04T11:56:29;100320.44;;;15.88;37.02
75208;BME280;63795;55.684;37.864;2023-06-04T12:01:30;100315.91;;;16.41;37.21
75208;BME280;63795;55.684;37.864;2023-06-04T12:06:32;100331.28;;;16.00;34.93
75208;BME280;63795;55.684;37.864;2023-06-04T12:11:34;100321.13;;;15.69;35.53
75208;BME280;63795;55.684;37.864;2023-06-04T12:16:34;100330.84;;;15.75;36.54
75208;BME280;63795;55.684;37.864;2023-06-04T12:21:36;100323.03;;;15.79;36.17
75208;BME280;63795;55.684;37.864;2023-06-04T12:26:37;100329.88;;;15.85;35.47
75208;BME280;63795;55.684;37.864;2023-06-04T12:31:41;100325.59;;;16.24;35.62
75208;BME280;63795;55.684;37.864;2023-06-04T12:36:42;100319.91;;;15.97;34.26
75208;BME280;63795;55.684;37.864;2023-06-04T12:41:46;100326.00;;;15.72;35.08
75208;BME280;63795;55.684;37.864;2023-06-04T12:46:50;100319.88;;;15.40;36.12
75208;BME280;63795;55.684;37.864;2023-06-04T12:51:50;100326.66;;;15.19;34.97
75208;BME280;63795;55.684;37.864;2023-06-04T12:56:51;100323.66;;;15.00;35.11
75208;BME280;63795;55.684;37.864;2023-06-04T13:01:52;100310.91;;;15.08;35.19
75208;BME280;63795;55.684;37.864;2023-06-04T13:06:53;100318.41;;;15.89;33.83
75208;BME280;63795;55.684;37.864;2023-06-04T13:11:58;100315.91;;;17.26;35.59
75208;BME280;63795;55.684;37.864;2023-06-04T13:17:00;100315.81;;;18.05;32.13
75208;BME280;63795;55.684;37.864;2023-06-04T13:22:00;100307.69;;;17.28;31.22
75208;BME280;63795;55.684;37.864;2023-06-04T13:27:01;100326.41;;;16.51;32.97
75208;BME280;63795;55.684;37.864;2023-06-04T13:32:01;100318.00;;;16.13;33.09
75208;BME280;63795;55.684;37.864;2023-06-04T13:37:02;100316.50;;;16.05;34.33
75208;BME280;63795;55.684;37.864;2023-06-04T13:42:03;100305.72;;;15.90;33.61
75208;BME280;63795;55.684;37.864;2023-06-04T13:47:04;100310.22;;;15.91;33.23
75208;BME280;63795;55.684;37.864;2023-06-04T13:52:05;100311.28;;;15.74;34.22
75208;BME280;63795;55.684;37.864;2023-06-04T13:57:05;100309.00;;;15.62;34.32
75208;BME280;63795;55.684;37.864;2023-06-04T14:02:07;100316.66;;;15.38;34.57
75208;BME280;63795;55.684;37.864;2023-06-04T14:07:07;100312.00;;;15.21;34.67
75208;BME280;63795;55.684;37.864;2023-06-04T14:12:08;100312.78;;;15.21;35.43
75208;BME280;63795;55.684;37.864;2023-06-04T14:17:09;100313.97;;;15.24;34.79
75208;BME280;63795;55.684;37.864;2023-06-04T14:22:10;100314.69;;;15.31;34.77
75208;BME280;63795;55.684;37.864;2023-06-04T14:27:12;100310.88;;;15.45;34.75
75208;BME280;63795;55.684;37.864;2023-06-04T14:32:13;100293.94;;;15.27;34.55
75208;BME280;63795;55.684;37.864;2023-06-04T14:37:13;100296.41;;;15.25;35.68
75208;BME280;63795;55.684;37.864;2023-06-04T14:42:14;100289.91;;;15.25;35.04
75208;BME280;63795;55.684;37.864;2023-06-04T14:47:15;100302.31;;;15.45;36.17
75208;BME280;63795;55.684;37.864;2023-06-04T14:52:15;100280.47;;;15.28;34.97
75208;BME280;63795;55.684;37.864;2023-06-04T14:57:16;100297.34;;;15.15;34.22
75208;BME280;63795;55.684;37.864;2023-06-04T15:02:19;100299.59;;;14.97;34.31
75208;BME280;63795;55.684;37.864;2023-06-04T15:07:22;100294.25;;;15.03;35.54
75208;BME280;63795;55.684;37.864;2023-06-04T15:12:22;100288.50;;;15.06;35.31
75208;BME280;63795;55.684;37.864;2023-06-04T15:17:23;100287.69;;;15.06;35.21
75208;BME280;63795;55.684;37.864;2023-06-04T15:22:24;100285.25;;;15.04;35.41
75208;BME280;63795;55.684;37.864;2023-06-04T15:27:25;100280.88;;;14.96;35.29
75208;BME280;63795;55.684;37.864;2023-06-04T15:32:25;100271.09;;;14.94;35.02
75208;BME280;63795;55.684;37.864;2023-06-04T15:37:26;100280.44;;;14.98;35.80
75208;BME280;63795;55.684;37.864;2023-06-04T15:42:27;100282.53;;;14.94;35.94
75208;BME280;63795;55.684;37.864;2023-06-04T15:47:27;100281.75;;;14.90;36.17
75208;BME280;63795;55.684;37.864;2023-06-04T15:52:28;100279.00;;;14.83;35.52
75208;BME280;63795;55.684;37.864;2023-06-04T15:57:28;100275.84;;;14.74;36.38
75208;BME280;63795;55.684;37.864;2023-06-04T16:02:28;100282.31;;;14.78;36.58
75208;BME280;63795;55.684;37.864;2023-06-04T16:07:29;100279.06;;;14.76;36.88
75208;BME280;63795;55.684;37.864;2023-06-04T16:12:29;100266.13;;;14.68;36.81
75208;BME280;63795;55.684;37.864;2023-06-04T16:17:30;100268.25;;;14.60;37.03
75208;BME280;63795;55.684;37.864;2023-06-04T16:22:31;100273.63;;;14.51;37.07
75208;BME280;63795;55.684;37.864;2023-06-04T16:27:31;100280.19;;;14.48;37.33
75208;BME280;63795;55.684;37.864;2023-06-04T16:32:32;100287.53;;;14.45;37.56
75208;BME280;63795;55.684;37.864;2023-06-04T16:37:32;100276.63;;;14.37;37.45
75208;BME280;63795;55.684;37.864;2023-06-04T16:42:33;100269.38;;;14.25;37.71
75208;BME280;63795;55.684;37.864;2023-06-04T16:47:34;100286.09;;;14.23;38.00
75208;BME280;63795;55.684;37.864;2023-06-04T16:52:35;100284.03;;;14.27;38.23
75208;BME280;63795;55.684;37.864;2023-06-04T16:57:36;100283.63;;;14.29;38.30
75208;BME280;63795;55.684;37.864;2023-06-04T17:02:37;100281.16;;;14.31;38.19
75208;BME280;63795;55.684;37.864;2023-06-04T17:07:38;100277.16;;;14.21;38.26
75208;BME280;63795;55.684;37.864;2023-06-04T17:12:38;100283.31;;;14.16;38.27
75208;BME280;63795;55.684;37.864;2023-06-04T17:17:39;100276.44;;;14.10;38.65
75208;BME280;63795;55.684;37.864;2023-06-04T17:22:40;100280.59;;;14.02;38.69
75208;BME280;63795;55.684;37.864;2023-06-04T17:27:40;100269.69;;;13.90;38.81
75208;BME280;63795;55.684;37.864;2023-06-04T17:32:41;100289.25;;;13.88;38.92
75208;BME280;63795;55.684;37.864;2023-06-04T17:37:41;100279.19;;;13.73;39.17
75208;BME280;63795;55.684;37.864;2023-06-04T17:42:42;100297.50;;;13.72;39.26
75208;BME280;63795;55.684;37.864;2023-06-04T17:47:46;100285.44;;;13.54;39.75
75208;BME280;63795;55.684;37.864;2023-06-04T17:52:47;100294.78;;;13.54;39.70
75208;BME280;63795;55.684;37.864;2023-06-04T17:57:47;100298.88;;;13.50;40.05
75208;BME280;63795;55.684;37.864;2023-06-04T18:02:48;100280.66;;;13.33;40.27
75208;BME280;63795;55.684;37.864;2023-06-04T18:07:48;100290.81;;;13.38;40.32
75208;BME280;63795;55.684;37.864;2023-06-04T18:12:50;100284.31;;;13.34;40.14
75208;BME280;63795;55.684;37.864;2023-06-04T18:17:50;100295.31;;;13.32;40.56
75208;BME280;63795;55.684;37.864;2023-06-04T18:22:51;100289.22;;;13.30;40.73
75208;BME280;63795;55.684;37.864;2023-06-04T18:27:52;100302.22;;;13.31;40.85
75208;BME280;63795;55.684;37.864;2023-06-04T18:32:52;100294.53;;;13.28;40.82
75208;BME280;63795;55.684;37.864;2023-06-04T18:37:54;100298.59;;;13.27;40.94
75208;BME280;63795;55.684;37.864;2023-06-04T18:42:54;100291.72;;;13.17;40.86
75208;BME280;63795;55.684;37.864;2023-06-04T18:47:55;100291.75;;;13.14;41.60
75208;BME280;63795;55.684;37.864;2023-06-04T18:52:56;100275.50;;;13.07;41.30
75208;BME280;63795;55.684;37.864;2023-06-04T18:58:01;100286.06;;;13.07;41.50
75208;BME280;63795;55.684;37.864;2023-06-04T19:03:01;100287.72;;;12.97;42.07
75208;BME280;63795;55.684;37.864;2023-06-04T19:08:02;100285.28;;;12.96;41.99
75208;BME280;63795;55.684;37.864;2023-06-04T19:13:02;100284.09;;;12.90;42.23
75208;BME280;63795;55.684;37.864;2023-06-04T19:18:03;100280.03;;;12.83;42.50
75208;BME280;63795;55.684;37.864;2023-06-04T19:23:03;100286.97;;;12.82;43.52
75208;BME280;63795;55.684;37.864;2023-06-04T19:28:04;100281.31;;;12.72;43.27
75208;BME280;63795;55.684;37.864;2023-06-04T19:33:05;100285.81;;;12.66;43.15
75208;BME280;63795;55.684;37.864;2023-06-04T19:38:06;100292.28;;;12.63;43.40
75208;BME280;63795;55.684;37.864;2023-06-04T19:43:06;100281.38;;;12.54;43.91
75208;BME280;63795;55.684;37.864;2023-06-04T19:48:08;100283.81;;;12.52;44.22
75208;BME280;63795;55.684;37.864;2023-06-04T19:53:09;100267.19;;;12.40;44.34
75208;BME280;63795;55.684;37.864;2023-06-04T19:58:09;100272.88;;;12.33;44.81
75208;BME280;63795;55.684;37.864;2023-06-04T20:03:10;100278.13;;;12.35;44.29
75208;BME280;63795;55.684;37.864;2023-06-04T20:08:11;100269.22;;;12.26;45.45
75208;BME280;63795;55.684;37.864;2023-06-04T20:13:11;100268.44;;;12.18;45.04
75208;BME280;63795;55.684;37.864;2023-06-04T20:18:12;100260.31;;;12.06;45.27
75208;BME280;63795;55.684;37.864;2023-06-04T20:23:13;100266.38;;;12.05;45.74
75208;BME280;63795;55.684;37.864;2023-06-04T20:28:14;100273.69;;;11.98;45.75
75208;BME280;63795;55.684;37.864;2023-06-04T20:33:15;100265.19;;;11.88;46.77
75208;BME280;63795;55.684;37.864;2023-06-04T20:38:15;100266.81;;;11.85;46.78
75208;BME280;63795;55.684;37.864;2023-06-04T20:43:16;100259.09;;;11.79;47.17
75208;BME280;63795;55.684;37.864;2023-06-04T20:48:17;100271.69;;;11.78;46.43
75208;BME280;63795;55.684;37.864;2023-06-04T20:53:18;100268.81;;;11.74;46.67
75208;BME280;63795;55.684;37.864;2023-06-04T20:58:18;100258.28;;;11.68;47.21
75208;BME280;63795;55.684;37.864;2023-06-04T21:03:19;100264.31;;;11.63;46.77
75208;BME280;63795;55.684;37.864;2023-06-04T21:08:22;100262.31;;;11.56;47.53
75208;BME280;63795;55.684;37.864;2023-06-04T21:13:23;100247.28;;;11.45;47.70
75208;BME280;63795;55.684;37.864;2023-06-04T21:18:23;100257.03;;;11.51;47.69
75208;BME280;63795;55.684;37.864;2023-06-04T21:23:24;100259.44;;;11.46;47.98
75208;BME280;63795;55.684;37.864;2023-06-04T21:28:24;100249.28;;;11.38;48.27
75208;BME280;63795;55.684;37.864;2023-06-04T21:33:25;100243.22;;;11.32;49.14
75208;BME280;63795;55.684;37.864;2023-06-04T21:38:25;100242.34;;;11.21;49.83
75208;BME280;63795;55.684;37.864;2023-06-04T21:43:27;100238.28;;;11.19;48.70
75208;BME280;63795;55.684;37.864;2023-06-04T21:48:27;100234.22;;;11.12;49.13
75208;BME280;63795;55.684;37.864;2023-06-04T21:53:28;100250.44;;;11.08;49.28
75208;BME280;63795;55.684;37.864;2023-06-04T21:58:28;100256.09;;;11.01;50.11
75208;BME280;63795;55.684;37.864;2023-06-04T22:03:29;100253.63;;;10.96;50.43
75208;BME280;63795;55.684;37.864;2023-06-04T22:08:29;100250.78;;;10.89;49.85
75208;BME280;63795;55.684;37.864;2023-06-04T22:13:30;100255.22;;;10.83;50.28
75208;BME280;63795;55.684;37.864;2023-06-04T22:18:30;100240.56;;;10.74;50.02
75208;BME280;63795;55.684;37.864;2023-06-04T22:23:31;100247.06;;;10.68;50.35
75208;BME280;63795;55.684;37.864;2023-06-04T22:28:31;100248.25;;;10.63;50.50
75208;BME280;63795;55.684;37.864;2023-06-04T22:33:32;100243.34;;;10.57;50.70
75208;BME280;63795;55.684;37.864;2023-06-04T22:38:32;100244.53;;;10.52;51.01
75208;BME280;63795;55.684;37.864;2023-06-04T22:43:33;100245.69;;;10.44;51.47
75208;BME280;63795;55.684;37.864;2023-06-04T22:48:33;100252.56;;;10.40;52.00
75208;BME280;63795;55.684;37.864;2023-06-04T22:53:34;100242.81;;;10.30;51.48
75208;BME280;63795;55.684;37.864;2023-06-04T22:58:34;100246.00;;;10.25;51.25
75208;BME280;63795;55.684;37.864;2023-06-04T23:03:35;100247.59;;;10.22;51.24
75208;BME280;63795;55.684;37.864;2023-06-04T23:08:35;100248.38;;;10.16;51.50
75208;BME280;63795;55.684;37.864;2023-06-04T23:13:36;100256.03;;;10.12;52.48
75208;BME280;63795;55.684;37.864;2023-06-04T23:18:36;100249.88;;;10.06;51.85
75208;BME280;63795;55.684;37.864;2023-06-04T23:23:37;100242.53;;;9.95;52.53
75208;BME280;63795;55.684;37.864;2023-06-04T23:28:37;100253.84;;;9.95;52.34
75208;BME280;63795;55.684;37.864;2023-06-04T23:33:38;100246.50;;;9.87;52.25
75208;BME280;63795;55.684;37.864;2023-06-04T23:38:39;100244.84;;;9.82;52.16
75208;BME280;63795;55.684;37.864;2023-06-04T23:43:39;100242.38;;;9.77;52.26
75208;BME280;63795;55.684;37.864;2023-06-04T23:48:40;100250.44;;;9.72;52.93
75208;BME280;63795;55.684;37.864;2023-06-04T23:53:40;100243.97;;;9.71;53.31
75208;BME280;63795;55.684;37.864;2023-06-04T23:58:41;100237.47;;;9.71;54.09
